Time;durP1;ratioP1;P1;durP2;ratioP2;P2;SDS_P1;SDS_P2;PMS_P1;PMS_P2;Temp;Humidity;BMP_temperature;BMP_pressure;BME280_temperature;BME280_humidity;BME280_pressure;Samples;Min_cycle;Max_cycle;Signal;HPM_P1;HPM_P2
2022/08/12 00:44:05;;;;;;;0.80;0.77;;;31.50;40.00;;;;;;20873310;28;20025;-73
2022/08/12 00:54:05;;;;;;;0.90;0.75;;;31.50;40.00;;;;;;20854430;28;20128;-75
2022/08/12 01:14:24;;;;;;;0.93;0.80;;;31.40;40.00;;;;;;21232370;22;20045;-73
2022/08/12 01:24:28;;;;;;;0.90;0.80;;;31.40;40.00;;;;;;20883719;28;20140;-72
2022/08/12 01:34:30;;;;;;;1.00;0.90;;;31.30;39.90;;;;;;20918099;28;20128;-72
2022/08/12 01:44:31;;;;;;;1.55;0.82;;;31.40;40.00;;;;;;20882482;28;20455;-72
2022/08/12 01:54:40;;;;;;;1.57;0.97;;;31.40;40.00;;;;;;20881833;28;20090;-72
2022/08/12 02:15:38;;;;;;;1.52;1.02;;;31.40;39.90;;;;;;20883051;28;20395;-72
2022/08/12 02:25:42;;;;;;;1.67;1.05;;;31.30;39.90;;;;;;20880275;28;20035;-72
2022/08/12 02:35:42;;;;;;;1.25;1.00;;;31.30;39.80;;;;;;20878129;28;20075;-72
2022/08/12 02:45:46;;;;;;;2.43;0.90;;;31.30;39.80;;;;;;20877958;28;20072;-72
2022/08/12 02:55:47;;;;;;;1.60;1.10;;;31.30;39.80;;;;;;20877274;28;20032;-72
2022/08/12 03:05:57;;;;;;;1.50;1.23;;;31.30;39.70;;;;;;20876430;28;20041;-72
2022/08/12 03:15:57;;;;;;;1.98;1.17;;;31.30;39.70;;;;;;20876261;28;20053;-73
2022/08/12 03:26:00;;;;;;;2.33;1.15;;;31.30;39.70;;;;;;20875890;28;20040;-72
2022/08/12 03:36:00;;;;;;;0.97;0.80;;;31.30;39.60;;;;;;20874166;28;20486;-72
2022/08/12 04:06:44;;;;;;;1.15;0.93;;;31.30;39.50;;;;;;20892371;28;20120;-72
2022/08/12 04:16:45;;;;;;;1.70;1.13;;;31.30;39.50;;;;;;20871171;28;20482;-73
2022/08/12 04:26:45;;;;;;;1.27;1.17;;;31.30;39.50;;;;;;20887233;28;20044;-74
2022/08/12 04:36:46;;;;;;;1.33;0.80;;;31.30;39.50;;;;;;20853945;28;20387;-73
2022/08/12 04:46:46;;;;;;;1.00;0.90;;;31.30;39.50;;;;;;20869748;28;20040;-72
2022/08/12 04:56:47;;;;;;;1.20;1.00;;;31.30;39.40;;;;;;20880543;28;20112;-75
2022/08/12 05:06:47;;;;;;;1.50;0.95;;;31.30;39.40;;;;;;20885908;28;20399;-73
2022/08/12 05:16:48;;;;;;;1.15;1.05;;;31.20;39.30;;;;;;20884898;28;20542;-72
2022/08/12 05:26:50;;;;;;;1.57;1.00;;;31.20;39.30;;;;;;20900839;28;20037;-73
2022/08/12 05:36:51;;;;;;;2.23;1.30;;;31.30;39.30;;;;;;20900769;28;20117;-72
2022/08/12 05:46:51;;;;;;;1.35;1.00;;;31.30;39.80;;;;;;20883243;28;20149;-72
2022/08/12 05:56:52;;;;;;;1.83;1.20;;;31.30;39.20;;;;;;20898903;28;20037;-72
2022/08/12 06:06:52;;;;;;;1.73;1.20;;;31.30;39.10;;;;;;20896585;28;20067;-74
2022/08/12 06:16:54;;;;;;;1.45;1.17;;;31.30;39.10;;;;;;20897371;28;20048;-75
2022/08/12 06:26:56;;;;;;;1.40;0.95;;;31.30;39.10;;;;;;20896456;28;20081;-73
2022/08/12 06:36:56;;;;;;;2.07;1.20;;;31.30;39.20;;;;;;20895808;28;20041;-72
2022/08/12 06:46:57;;;;;;;1.92;1.33;;;31.30;39.20;;;;;;20862203;28;20479;-72
2022/08/12 06:56:59;;;;;;;1.17;1.00;;;31.30;39.20;;;;;;20879315;28;20498;-72
2022/08/12 07:06:59;;;;;;;1.20;1.10;;;31.30;39.20;;;;;;20894203;28;20478;-73
2022/08/12 07:17:02;;;;;;;1.75;0.95;;;31.30;39.30;;;;;;20876968;28;20115;-72
2022/08/12 07:27:02;;;;;;;1.47;1.17;;;31.30;39.30;;;;;;20876051;28;20115;-71
2022/08/12 07:37:03;;;;;;;1.73;1.00;;;31.40;39.30;;;;;;20859097;28;20129;-71
2022/08/12 07:47:05;;;;;;;2.35;1.20;;;31.50;39.40;;;;;;20908570;28;20133;-74
2022/08/12 07:57:10;;;;;;;1.02;0.80;;;31.50;39.30;;;;;;20873523;28;20519;-73
2022/08/12 08:07:11;;;;;;;0.88;0.85;;;31.50;39.20;;;;;;20890202;28;20047;-72
2022/08/12 08:17:11;;;;;;;1.13;0.73;;;31.60;39.30;;;;;;20888336;28;20119;-72
2022/08/12 08:27:12;;;;;;;1.85;1.00;;;31.60;39.30;;;;;;20870889;28;20140;-72
2022/08/12 08:37:15;;;;;;;1.48;1.13;;;31.50;39.30;;;;;;20871058;28;20074;-72
2022/08/12 08:47:15;;;;;;;1.25;0.98;;;31.50;39.40;;;;;;20870987;28;20061;-73
2022/08/12 08:57:16;;;;;;;1.73;1.00;;;31.50;39.50;;;;;;20886977;28;20542;-73
2022/08/12 09:07:17;;;;;;;1.40;0.80;;;31.40;39.50;;;;;;20886815;28;20520;-72
2022/08/12 09:17:19;;;;;;;0.57;0.55;;;31.40;39.60;;;;;;20885911;28;20127;-72
2022/08/12 09:27:19;;;;;;;0.80;0.70;;;31.40;39.70;;;;;;20853030;28;20025;-71
2022/08/12 09:37:24;;;;;;;1.17;0.75;;;31.40;39.80;;;;;;20870298;28;20033;-71
2022/08/12 09:47:27;;;;;;;1.40;0.88;;;31.30;39.80;;;;;;20886709;28;20434;-71
2022/08/12 09:57:29;;;;;;;1.92;0.90;;;31.30;40.00;;;;;;20884396;28;20388;-72
2022/08/12 10:07:29;;;;;;;0.83;0.77;;;31.30;40.10;;;;;;20898930;28;20033;-73
2022/08/12 10:17:30;;;;;;;0.88;0.70;;;31.20;40.00;;;;;;20898170;28;20306;-71
2022/08/12 10:37:50;;;;;;;0.47;0.47;;;31.30;39.80;;;;;;20899148;28;20112;-72
2022/08/12 10:47:51;;;;;;;1.03;0.63;;;31.40;39.70;;;;;;20879050;28;20112;-72
2022/08/12 10:57:52;;;;;;;0.80;0.60;;;31.50;39.60;;;;;;20877631;28;20475;-71
2022/08/12 11:07:54;;;;;;;0.60;0.57;;;31.60;39.40;;;;;;20877300;28;20063;-72
2022/08/12 11:17:55;;;;;;;1.00;0.90;;;31.70;39.30;;;;;;20876096;28;20423;-71
2022/08/12 11:27:56;;;;;;;1.00;0.70;;;31.80;39.10;;;;;;20875417;28;20031;-72
2022/08/12 11:38:00;;;;;;;0.90;0.60;;;31.90;39.00;;;;;;20891564;28;20036;-71
2022/08/12 11:48:00;;;;;;;1.00;0.65;;;32.00;38.90;;;;;;20890597;28;20087;-71
2022/08/12 11:58:01;;;;;;;0.47;0.47;;;32.00;38.70;;;;;;20873367;28;20619;-71
2022/08/12 12:08:02;;;;;;;0.68;0.47;;;32.10;38.60;;;;;;20873570;28;20048;-70
2022/08/12 12:18:03;;;;;;;1.38;0.50;;;32.20;38.60;;;;;;20872723;28;20087;-73
2022/08/12 12:28:03;;;;;;;0.60;0.50;;;32.20;38.50;;;;;;20855216;28;20068;-71
2022/08/12 12:38:06;;;;;;;0.70;0.52;;;32.30;38.40;;;;;;20871283;28;20041;-72
2022/08/12 12:48:14;;;;;;;0.60;0.60;;;32.30;38.40;;;;;;20854124;28;20048;-71
2022/08/12 12:58:19;;;;;;;0.88;0.50;;;32.30;38.30;;;;;;20853653;28;20037;-72
2022/08/12 13:08:29;;;;;;;0.88;0.65;;;32.40;38.30;;;;;;20886739;28;20033;-72
2022/08/12 13:18:35;;;;;;;0.60;0.45;;;32.40;38.30;;;;;;20880804;28;20410;-72
2022/08/12 13:28:35;;;;;;;0.47;0.47;;;32.40;38.20;;;;;;20902521;28;20036;-72
2022/08/12 13:38:40;;;;;;;0.85;0.47;;;32.40;38.20;;;;;;20868184;28;20041;-71
2022/08/12 13:48:42;;;;;;;0.45;0.43;;;32.40;38.20;;;;;;20883993;28;20064;-71
2022/08/12 13:58:49;;;;;;;0.50;0.40;;;32.50;38.30;;;;;;20899874;28;20033;-71
2022/08/12 14:08:50;;;;;;;0.50;0.50;;;32.50;38.30;;;;;;20883373;28;20299;-73
2022/08/12 14:18:50;;;;;;;0.67;0.30;;;32.50;38.40;;;;;;20899723;28;20040;-73
2022/08/12 14:28:54;;;;;;;0.43;0.40;;;32.50;38.40;;;;;;20879812;28;20037;-73
2022/08/12 14:38:55;;;;;;;0.98;0.40;;;32.50;38.50;;;;;;20880365;28;20049;-73
2022/08/12 14:48:56;;;;;;;0.30;0.30;;;32.50;38.60;;;;;;20896054;28;20064;-74
2022/08/12 15:09:15;;;;;;;0.30;0.22;;;32.40;38.70;;;;;;20880352;28;20032;-73
2022/08/12 15:19:16;;;;;;;0.60;0.40;;;32.40;38.90;;;;;;20877186;28;20033;-75
2022/08/12 15:29:16;;;;;;;0.35;0.30;;;32.30;39.10;;;;;;20876819;28;20040;-74
2022/08/12 15:39:17;;;;;;;0.57;0.50;;;32.20;39.30;;;;;;20875963;28;20039;-74
2022/08/12 15:49:17;;;;;;;0.55;0.40;;;32.20;39.50;;;;;;20874118;28;20358;-74
2022/08/12 15:59:18;;;;;;;0.20;0.20;;;32.00;39.60;;;;;;20873304;28;20037;-72
2022/08/12 16:09:21;;;;;;;0.70;0.57;;;32.00;39.80;;;;;;20872815;28;20051;-75
2022/08/12 16:19:21;;;;;;;0.45;0.45;;;32.00;40.00;;;;;;20856370;28;20463;-73
2022/08/12 16:29:30;;;;;;;0.20;0.20;;;31.80;40.10;;;;;;20855462;28;20083;-73
2022/08/12 16:39:34;;;;;;;0.20;0.20;;;31.80;40.30;;;;;;20872794;28;20029;-72
2022/08/12 16:49:37;;;;;;;0.30;0.20;;;31.70;40.50;;;;;;20853827;28;20033;-73
2022/08/12 16:59:39;;;;;;;0.30;0.30;;;31.60;40.50;;;;;;20870631;28;20055;-72
2022/08/12 17:09:40;;;;;;;0.30;0.30;;;31.60;40.60;;;;;;20869450;28;20045;-72
2022/08/12 17:19:42;;;;;;;0.20;0.20;;;31.60;40.90;;;;;;20853237;28;20033;-72
2022/08/12 17:29:44;;;;;;;0.32;0.32;;;31.50;41.00;;;;;;20869452;28;20037;-74
2022/08/12 17:39:46;;;;;;;0.30;0.30;;;31.40;41.00;;;;;;20869041;28;20033;-73
2022/08/12 17:49:47;;;;;;;0.83;0.30;;;31.30;41.10;;;;;;20885211;28;20041;-71
2022/08/12 17:59:48;;;;;;;0.30;0.30;;;31.30;41.20;;;;;;20855084;28;20119;-71
2022/08/12 18:09:48;;;;;;;0.13;0.13;;;31.30;41.30;;;;;;20882427;28;20048;-73
2022/08/12 18:19:49;;;;;;;0.70;0.30;;;31.30;41.40;;;;;;20881179;28;20044;-72
2022/08/12 18:29:52;;;;;;;0.30;0.28;;;31.30;41.40;;;;;;20881376;28;20037;-72
2022/08/12 18:50:14;;;;;;;0.52;0.22;;;31.20;41.30;;;;;;20881092;28;20132;-71
2022/08/12 19:00:17;;;;;;;0.10;0.10;;;31.30;41.30;;;;;;20878247;28;20052;-73
2022/08/12 19:10:19;;;;;;;0.43;0.30;;;31.30;41.20;;;;;;20876590;28;20040;-72
2022/08/12 19:20:20;;;;;;;0.40;0.40;;;31.30;41.10;;;;;;20860598;28;20041;-73
2022/08/12 19:40:46;;;;;;;0.60;0.40;;;31.30;41.00;;;;;;20850520;28;20479;-72
2022/08/12 19:50:48;;;;;;;0.68;0.52;;;31.30;40.90;;;;;;20873312;28;20479;-75
2022/08/12 20:00:49;;;;;;;0.57;0.30;;;31.40;40.90;;;;;;20856763;28;20033;-74
2022/08/12 20:10:51;;;;;;;0.33;0.27;;;31.40;40.80;;;;;;20872139;28;20071;-73
2022/08/12 20:20:52;;;;;;;0.40;0.33;;;31.40;40.80;;;;;;20871740;28;20464;-72
2022/08/12 20:30:53;;;;;;;1.88;0.30;;;31.40;40.70;;;;;;20887570;28;20091;-72
2022/08/12 20:40:54;;;;;;;0.40;0.40;;;31.50;40.70;;;;;;20871332;28;20036;-73
2022/08/12 20:50:55;;;;;;;0.50;0.40;;;31.50;40.70;;;;;;20870386;28;20032;-73
2022/08/12 21:00:57;;;;;;;0.95;0.30;;;31.50;40.60;;;;;;20870432;28;20181;-72
2022/08/12 21:10:57;;;;;;;0.80;0.40;;;31.50;40.50;;;;;;20886675;28;20429;-72
2022/08/12 21:20:58;;;;;;;0.68;0.60;;;31.50;40.50;;;;;;20869874;28;20068;-72
2022/08/12 21:31:00;;;;;;;2.38;0.45;;;31.50;40.50;;;;;;20869016;28;20103;-73
2022/08/12 21:41:04;;;;;;;0.68;0.50;;;31.50;40.50;;;;;;20882577;28;20083;-73
2022/08/12 21:51:06;;;;;;;1.35;0.40;;;31.50;40.50;;;;;;20884135;28;20048;-72
2022/08/12 22:01:07;;;;;;;0.97;0.63;;;31.50;40.40;;;;;;20885083;28;20061;-73
2022/08/12 22:11:08;;;;;;;0.50;0.50;;;31.50;40.40;;;;;;20881565;28;20051;-72
2022/08/12 22:21:08;;;;;;;0.50;0.40;;;31.50;40.40;;;;;;20881998;28;20036;-72
2022/08/12 22:31:09;;;;;;;0.77;0.50;;;31.50;40.40;;;;;;20880536;28;20068;-74
2022/08/12 22:51:34;;;;;;;1.03;0.67;;;31.50;40.40;;;;;;20880676;28;20037;-72
2022/08/12 23:01:39;;;;;;;0.80;0.80;;;31.50;40.40;;;;;;20912381;28;20372;-72
2022/08/12 23:11:41;;;;;;;0.75;0.60;;;31.50;40.30;;;;;;20894710;28;20047;-72
2022/08/12 23:21:50;;;;;;;0.70;0.52;;;31.50;40.20;;;;;;20893204;28;20033;-72
2022/08/12 23:31:56;;;;;;;0.50;0.50;;;31.50;40.20;;;;;;20860016;28;20379;-74
2022/08/12 23:41:57;;;;;;;0.73;0.65;;;31.50;40.10;;;;;;20875466;28;20041;-73
2022/08/12 23:52:00;;;;;;;1.97;1.07;;;31.50;40.10;;;;;;20873736;28;20130;-72
